Lilongwe, Malawi
Current Conditions -  °F | °C
As of 8:00 AM on Monday 24 Nov 2014 (Local Time) from FVHA Reporting Station
Clear Clear  
Wind Chill: 24°   Ceiling: Unl
Heat Index: 24°   Visibility: 6mi
Dew Point: 12°   Wind: 13mph
Humidity: 47%   Direction: 70°ENE
Pressure: 30.21"   Gusts: NA
Location:  13.97°S, 33.8°E
Report Text: FVHA 240600Z 07011KT 030V090 CAVOK 24/12 Q1023 NOSIG RMKQFE 855.1
Loading
Personal Weather Stations






























Interactive Weather Map New forecast layout! Learn more

10-Day Weather Forecast

Advertisements
Track Severe Weather on mobile